createdAt,value
2022-12-15T08:01:49.992Z,64.80
2022-12-15T08:04:27.853Z,83.27
2022-12-15T08:07:04.928Z,71.30
2022-12-15T08:09:42.548Z,80.60
2022-12-15T08:12:19.836Z,77.70
2022-12-15T08:14:57.205Z,75.33
2022-12-15T08:17:38.635Z,68.50
2022-12-15T08:20:16.503Z,71.13
2022-12-15T08:22:55.066Z,62.70
2022-12-15T08:25:33.386Z,71.17
2022-12-15T08:28:10.415Z,79.77
2022-12-15T08:30:47.899Z,80.20
2022-12-15T08:33:28.091Z,58.60
2022-12-15T08:36:08.397Z,76.37
2022-12-15T08:38:47.487Z,74.70
2022-12-15T08:41:27.565Z,71.20
2022-12-15T08:44:05.326Z,71.83
2022-12-15T08:46:42.895Z,71.43
2022-12-15T08:49:23.098Z,70.70
2022-12-15T08:52:01.211Z,72.07
2022-12-15T08:54:38.506Z,66.47
2022-12-15T08:57:15.844Z,66.93
2022-12-15T08:59:54.015Z,76.97
2022-12-15T09:02:31.633Z,63.40
2022-12-15T09:05:13.313Z,62.63
2022-12-15T09:07:50.683Z,65.57
2022-12-15T09:10:28.658Z,60.93
2022-12-15T09:13:08.977Z,70.47
2022-12-15T09:16:15.305Z,63.17
2022-12-15T09:18:49.288Z,60.83
2022-12-15T09:21:34.518Z,53.40
2022-12-15T09:24:25.849Z,60.57
2022-12-15T09:27:09.303Z,53.53
2022-12-15T09:29:49.003Z,51.23
2022-12-15T09:32:27.860Z,50.07
2022-12-15T09:35:07.464Z,52.93
2022-12-15T09:37:51.740Z,51.37
2022-12-15T09:40:31.166Z,46.00
2022-12-15T09:43:46.753Z,48.87
2022-12-15T09:46:24.022Z,46.30
2022-12-15T09:49:06.877Z,47.67
2022-12-15T09:51:52.467Z,46.03
2022-12-15T09:54:38.183Z,48.50
2022-12-15T09:57:45.284Z,53.27
2022-12-15T10:01:17.567Z,48.47
2022-12-15T10:05:13.772Z,41.27
2022-12-15T10:12:23.166Z,39.00
2022-12-15T10:15:58.665Z,37.33
2022-12-15T10:19:43.396Z,50.63
2022-12-15T10:22:58.183Z,44.33
2022-12-15T10:30:24.543Z,41.47
2022-12-15T10:33:28.803Z,39.77
2022-12-15T10:36:09.182Z,32.93
2022-12-15T10:38:50.866Z,34.13
2022-12-15T10:41:29.080Z,37.80
2022-12-15T10:44:32.067Z,37.93
2022-12-15T10:47:49.506Z,35.30
2022-12-15T10:54:07.648Z,39.73
2022-12-15T10:56:58.169Z,32.10
2022-12-15T10:59:53.827Z,35.17
2022-12-15T11:03:34.976Z,34.20
2022-12-15T11:06:33.283Z,31.90
2022-12-15T11:09:42.232Z,33.38
2022-12-15T11:12:58.743Z,35.07
2022-12-15T11:16:09.730Z,34.23
2022-12-15T11:19:20.931Z,31.30
2022-12-15T11:22:30.439Z,40.37
2022-12-15T11:25:49.188Z,35.30
2022-12-15T11:29:11.480Z,40.70
2022-12-15T11:32:21.703Z,37.03
2022-12-15T11:35:31.248Z,39.93
2022-12-15T11:38:32.752Z,32.57
2022-12-15T11:41:47.159Z,34.23
2022-12-15T11:44:55.332Z,40.20
2022-12-15T11:47:57.028Z,39.67
2022-12-15T11:51:03.324Z,39.97
2022-12-15T11:58:06.314Z,43.27
2022-12-15T12:01:12.122Z,44.75
2022-12-15T12:04:25.283Z,40.20
2022-12-15T12:07:58.586Z,36.60
2022-12-15T12:15:00.883Z,47.23
2022-12-15T12:21:32.709Z,43.13
2022-12-15T12:24:43.262Z,42.43
2022-12-15T12:27:48.768Z,39.37
2022-12-15T12:31:18.774Z,65.30
2022-12-15T12:38:38.004Z,41.37
